sensor_id;sensor_type;location;lat;lon;timestamp;pressure;altitude;pressure_sealevel;temperature;humidity
8697;BME280;4385;48.848;8.924;2023-07-02T00:01:54;96847.03;;;23.89;100.00
8697;BME280;4385;48.848;8.924;2023-07-02T00:04:19;96847.03;;;23.89;100.00
8697;BME280;4385;48.848;8.924;2023-07-02T00:06:46;96846.22;;;23.88;100.00
8697;BME280;4385;48.848;8.924;2023-07-02T00:09:12;96845.41;;;23.88;100.00
8697;BME280;4385;48.848;8.924;2023-07-02T00:11:39;96843.75;;;23.87;100.00
8697;BME280;4385;48.848;8.924;2023-07-02T00:14:05;96847.22;;;23.86;100.00
8697;BME280;4385;48.848;8.924;2023-07-02T00:16:31;96841.25;;;23.85;100.00
8697;BME280;4385;48.848;8.924;2023-07-02T00:18:56;96841.34;;;23.84;100.00
8697;BME280;4385;48.848;8.924;2023-07-02T00:21:22;96845.66;;;23.83;100.00
8697;BME280;4385;48.848;8.924;2023-07-02T00:23:48;96845.72;;;23.82;100.00
8697;BME280;4385;48.848;8.924;2023-07-02T00:26:13;96851.78;;;23.81;100.00
8697;BME280;4385;48.848;8.924;2023-07-02T00:28:39;96850.13;;;23.79;100.00
8697;BME280;4385;48.848;8.924;2023-07-02T00:31:04;96858.66;;;23.80;100.00
8697;BME280;4385;48.848;8.924;2023-07-02T00:33:31;96854.44;;;23.79;100.00
8697;BME280;4385;48.848;8.924;2023-07-02T00:35:56;96851.88;;;23.79;100.00
8697;BME280;4385;48.848;8.924;2023-07-02T00:38:23;96852.69;;;23.79;100.00
8697;BME280;4385;48.848;8.924;2023-07-02T00:40:48;96853.59;;;23.78;100.00
8697;BME280;4385;48.848;8.924;2023-07-02T00:43:13;96852.78;;;23.78;100.00
8697;BME280;4385;48.848;8.924;2023-07-02T00:45:39;96853.59;;;23.78;100.00
8697;BME280;4385;48.848;8.924;2023-07-02T00:48:06;96844.25;;;23.77;100.00
8697;BME280;4385;48.848;8.924;2023-07-02T00:50:31;96844.25;;;23.77;100.00
8697;BME280;4385;48.848;8.924;2023-07-02T00:52:57;96850.19;;;23.78;100.00
8697;BME280;4385;48.848;8.924;2023-07-02T00:55:22;96852.84;;;23.76;100.00
8697;BME280;4385;48.848;8.924;2023-07-02T00:57:48;96855.44;;;23.76;100.00
8697;BME280;4385;48.848;8.924;2023-07-02T01:00:13;96855.50;;;23.75;100.00
8697;BME280;4385;48.848;8.924;2023-07-02T01:02:38;96846.06;;;23.75;100.00
8697;BME280;4385;48.848;8.924;2023-07-02T01:05:09;96849.56;;;23.74;100.00
8697;BME280;4385;48.848;8.924;2023-07-02T01:07:34;96846.06;;;23.75;100.00
8697;BME280;4385;48.848;8.924;2023-07-02T01:09:59;96841.84;;;23.74;100.00
8697;BME280;4385;48.848;8.924;2023-07-02T01:12:25;96844.41;;;23.74;100.00
8697;BME280;4385;48.848;8.924;2023-07-02T01:14:53;96859.84;;;23.74;100.00
8697;BME280;4385;48.848;8.924;2023-07-02T01:17:21;96859.84;;;23.74;100.00
8697;BME280;4385;48.848;8.924;2023-07-02T01:19:52;96865.00;;;23.74;100.00
8697;BME280;4385;48.848;8.924;2023-07-02T01:22:20;96865.00;;;23.74;100.00
8697;BME280;4385;48.848;8.924;2023-07-02T01:24:46;96863.31;;;23.73;100.00
8697;BME280;4385;48.848;8.924;2023-07-02T01:27:13;96863.31;;;23.73;100.00
8697;BME280;4385;48.848;8.924;2023-07-02T01:29:40;96870.13;;;23.74;100.00
8697;BME280;4385;48.848;8.924;2023-07-02T01:32:05;96858.16;;;23.73;100.00
8697;BME280;4385;48.848;8.924;2023-07-02T01:34:31;96860.81;;;23.72;100.00
8697;BME280;4385;48.848;8.924;2023-07-02T01:36:56;96861.66;;;23.72;100.00
8697;BME280;4385;48.848;8.924;2023-07-02T01:39:21;96854.88;;;23.71;100.00
8697;BME280;4385;48.848;8.924;2023-07-02T01:41:55;96849.72;;;23.71;100.00
8697;BME280;4385;48.848;8.924;2023-07-02T01:44:21;96847.22;;;23.70;100.00
8697;BME280;4385;48.848;8.924;2023-07-02T01:46:47;96839.59;;;23.68;100.00
8697;BME280;4385;48.848;8.924;2023-07-02T01:49:18;96845.63;;;23.67;100.00
8697;BME280;4385;48.848;8.924;2023-07-02T01:52:01;96845.63;;;23.67;100.00
8697;BME280;4385;48.848;8.924;2023-07-02T01:54:28;96843.97;;;23.66;100.00
8697;BME280;4385;48.848;8.924;2023-07-02T01:56:54;96850.06;;;23.65;100.00
8697;BME280;4385;48.848;8.924;2023-07-02T01:59:19;96858.66;;;23.64;100.00
8697;BME280;4385;48.848;8.924;2023-07-02T02:01:45;96857.84;;;23.63;100.00
8697;BME280;4385;48.848;8.924;2023-07-02T02:04:11;96857.84;;;23.63;100.00
8697;BME280;4385;48.848;8.924;2023-07-02T02:06:37;96854.44;;;23.63;100.00
8697;BME280;4385;48.848;8.924;2023-07-02T02:09:03;96865.66;;;23.62;100.00
8697;BME280;4385;48.848;8.924;2023-07-02T02:11:30;96859.66;;;23.61;100.00
8697;BME280;4385;48.848;8.924;2023-07-02T02:13:55;96862.25;;;23.61;100.00
8697;BME280;4385;48.848;8.924;2023-07-02T02:16:20;96858.81;;;23.61;100.00
8697;BME280;4385;48.848;8.924;2023-07-02T02:18:46;96858.81;;;23.61;100.00
8697;BME280;4385;48.848;8.924;2023-07-02T02:21:11;96857.19;;;23.60;100.00
8697;BME280;4385;48.848;8.924;2023-07-02T02:23:37;96857.19;;;23.60;100.00
8697;BME280;4385;48.848;8.924;2023-07-02T02:26:02;96868.31;;;23.60;100.00
8697;BME280;4385;48.848;8.924;2023-07-02T02:28:27;96864.06;;;23.59;100.00
8697;BME280;4385;48.848;8.924;2023-07-02T02:30:52;96864.88;;;23.60;100.00
8697;BME280;4385;48.848;8.924;2023-07-02T02:33:18;96867.47;;;23.60;100.00
8697;BME280;4385;48.848;8.924;2023-07-02T02:35:43;96869.19;;;23.59;100.00
8697;BME280;4385;48.848;8.924;2023-07-02T02:38:08;96871.75;;;23.59;100.00
8697;BME280;4385;48.848;8.924;2023-07-02T02:40:33;96870.94;;;23.59;100.00
8697;BME280;4385;48.848;8.924;2023-07-02T02:42:59;96876.09;;;23.59;100.00
8697;BME280;4385;48.848;8.924;2023-07-02T02:45:25;96873.53;;;23.59;100.00
8697;BME280;4385;48.848;8.924;2023-07-02T02:47:50;96878.66;;;23.59;100.00
8697;BME280;4385;48.848;8.924;2023-07-02T02:50:15;96877.75;;;23.60;100.00
8697;BME280;4385;48.848;8.924;2023-07-02T02:52:41;96887.19;;;23.59;100.00
8697;BME280;4385;48.848;8.924;2023-07-02T02:55:07;96888.94;;;23.59;100.00
8697;BME280;4385;48.848;8.924;2023-07-02T02:57:33;96889.84;;;23.58;100.00
8697;BME280;4385;48.848;8.924;2023-07-02T02:59:58;96892.41;;;23.58;100.00
8697;BME280;4385;48.848;8.924;2023-07-02T03:02:24;96894.19;;;23.57;100.00
8697;BME280;4385;48.848;8.924;2023-07-02T03:04:49;96900.13;;;23.58;100.00
8697;BME280;4385;48.848;8.924;2023-07-02T03:07:15;96900.13;;;23.58;100.00
8697;BME280;4385;48.848;8.924;2023-07-02T03:09:40;96893.34;;;23.57;100.00
8697;BME280;4385;48.848;8.924;2023-07-02T03:12:06;96901.91;;;23.57;100.00
8697;BME280;4385;48.848;8.924;2023-07-02T03:14:31;96903.63;;;23.57;100.00
8697;BME280;4385;48.848;8.924;2023-07-02T03:16:57;96906.28;;;23.55;100.00
8697;BME280;4385;48.848;8.924;2023-07-02T03:19:22;96912.25;;;23.56;100.00
8697;BME280;4385;48.848;8.924;2023-07-02T03:21:47;96901.97;;;23.56;100.00
8697;BME280;4385;48.848;8.924;2023-07-02T03:24:13;96912.25;;;23.56;100.00
8697;BME280;4385;48.848;8.924;2023-07-02T03:26:39;96920.88;;;23.54;100.00
8697;BME280;4385;48.848;8.924;2023-07-02T03:29:05;96917.41;;;23.56;100.00
8697;BME280;4385;48.848;8.924;2023-07-02T03:31:31;96915.72;;;23.54;100.00
8697;BME280;4385;48.848;8.924;2023-07-02T03:33:56;96920.88;;;23.54;100.00
8697;BME280;4385;48.848;8.924;2023-07-02T03:36:22;96920.88;;;23.54;100.00
8697;BME280;4385;48.848;8.924;2023-07-02T03:38:47;96926.00;;;23.54;100.00
8697;BME280;4385;48.848;8.924;2023-07-02T03:41:12;96927.78;;;23.54;100.00
8697;BME280;4385;48.848;8.924;2023-07-02T03:43:38;96930.34;;;23.54;100.00
8697;BME280;4385;48.848;8.924;2023-07-02T03:46:03;96934.66;;;23.53;100.00
8697;BME280;4385;48.848;8.924;2023-07-02T03:48:28;96940.72;;;23.52;100.00
8697;BME280;4385;48.848;8.924;2023-07-02T03:50:53;96937.28;;;23.52;100.00
8697;BME280;4385;48.848;8.924;2023-07-02T03:53:19;96933.81;;;23.53;100.00
8697;BME280;4385;48.848;8.924;2023-07-02T03:55:44;96937.28;;;23.52;100.00
8697;BME280;4385;48.848;8.924;2023-07-02T03:58:09;96942.44;;;23.52;100.00
8697;BME280;4385;48.848;8.924;2023-07-02T04:00:35;96948.50;;;23.51;100.00
8697;BME280;4385;48.848;8.924;2023-07-02T04:03:01;96941.69;;;23.50;100.00
8697;BME280;4385;48.848;8.924;2023-07-02T04:05:27;96945.09;;;23.50;100.00
8697;BME280;4385;48.848;8.924;2023-07-02T04:07:52;96943.44;;;23.49;100.00
8697;BME280;4385;48.848;8.924;2023-07-02T04:10:17;96943.44;;;23.49;100.00
8697;BME280;4385;48.848;8.924;2023-07-02T04:12:42;96950.31;;;23.49;100.00
8697;BME280;4385;48.848;8.924;2023-07-02T04:15:08;96950.22;;;23.50;100.00
8697;BME280;4385;48.848;8.924;2023-07-02T04:17:34;96946.00;;;23.49;100.00
8697;BME280;4385;48.848;8.924;2023-07-02T04:20:00;96950.22;;;23.50;100.00
8697;BME280;4385;48.848;8.924;2023-07-02T04:22:28;96955.38;;;23.50;100.00
8697;BME280;4385;48.848;8.924;2023-07-02T04:24:53;96955.28;;;23.52;100.00
8697;BME280;4385;48.848;8.924;2023-07-02T04:27:18;96960.50;;;23.50;100.00
8697;BME280;4385;48.848;8.924;2023-07-02T04:29:44;96964.00;;;23.49;100.00
8697;BME280;4385;48.848;8.924;2023-07-02T04:32:09;96960.59;;;23.49;100.00
8697;BME280;4385;48.848;8.924;2023-07-02T04:34:35;96969.16;;;23.49;100.00
8697;BME280;4385;48.848;8.924;2023-07-02T04:37:04;96971.78;;;23.48;100.00
8697;BME280;4385;48.848;8.924;2023-07-02T04:39:29;96971.78;;;23.48;100.00
8697;BME280;4385;48.848;8.924;2023-07-02T04:41:55;96975.34;;;23.45;100.00
8697;BME280;4385;48.848;8.924;2023-07-02T04:44:20;96974.53;;;23.45;100.00
8697;BME280;4385;48.848;8.924;2023-07-02T04:46:56;96974.59;;;23.43;100.00
8697;BME280;4385;48.848;8.924;2023-07-02T04:49:21;96969.53;;;23.41;100.00
8697;BME280;4385;48.848;8.924;2023-07-02T04:51:47;96970.44;;;23.40;100.00
8697;BME280;4385;48.848;8.924;2023-07-02T04:54:12;96972.25;;;23.38;100.00
8697;BME280;4385;48.848;8.924;2023-07-02T04:56:37;96973.06;;;23.39;100.00
8697;BME280;4385;48.848;8.924;2023-07-02T04:59:03;96973.06;;;23.39;100.00
8697;BME280;4385;48.848;8.924;2023-07-02T05:01:28;96972.25;;;23.38;100.00
8697;BME280;4385;48.848;8.924;2023-07-02T05:03:54;96970.56;;;23.37;100.00
8697;BME280;4385;48.848;8.924;2023-07-02T05:06:19;96979.13;;;23.38;100.00
8697;BME280;4385;48.848;8.924;2023-07-02T05:08:44;96976.56;;;23.38;100.00
8697;BME280;4385;48.848;8.924;2023-07-02T05:11:09;96981.72;;;23.38;100.00
8697;BME280;4385;48.848;8.924;2023-07-02T05:13:35;96989.34;;;23.39;100.00
8697;BME280;4385;48.848;8.924;2023-07-02T05:16:00;96985.03;;;23.40;100.00
8697;BME280;4385;48.848;8.924;2023-07-02T05:18:25;96990.19;;;23.40;100.00
8697;BME280;4385;48.848;8.924;2023-07-02T05:20:51;96995.31;;;23.40;100.00
8697;BME280;4385;48.848;8.924;2023-07-02T05:23:16;96993.50;;;23.42;100.00
8697;BME280;4385;48.848;8.924;2023-07-02T05:25:41;96994.25;;;23.44;100.00
8697;BME280;4385;48.848;8.924;2023-07-02T05:28:06;96997.59;;;23.46;100.00
8697;BME280;4385;48.848;8.924;2023-07-02T05:30:32;97003.63;;;23.45;100.00
8697;BME280;4385;48.848;8.924;2023-07-02T05:32:57;97007.88;;;23.46;100.00
8697;BME280;4385;48.848;8.924;2023-07-02T05:35:22;97000.16;;;23.46;100.00
8697;BME280;4385;48.848;8.924;2023-07-02T05:37:47;97005.31;;;23.46;100.00
8697;BME280;4385;48.848;8.924;2023-07-02T05:40:13;97000.16;;;23.46;100.00
8697;BME280;4385;48.848;8.924;2023-07-02T05:42:38;97009.53;;;23.47;100.00
8697;BME280;4385;48.848;8.924;2023-07-02T05:45:04;97002.66;;;23.48;100.00
8697;BME280;4385;48.848;8.924;2023-07-02T05:47:29;97003.47;;;23.48;100.00
8697;BME280;4385;48.848;8.924;2023-07-02T05:49:54;97008.59;;;23.48;100.00
8697;BME280;4385;48.848;8.924;2023-07-02T05:52:19;97007.72;;;23.49;100.00
8697;BME280;4385;48.848;8.924;2023-07-02T05:54:45;97000.88;;;23.48;100.00
8697;BME280;4385;48.848;8.924;2023-07-02T05:57:10;97006.03;;;23.48;100.00
8697;BME280;4385;48.848;8.924;2023-07-02T05:59:35;97012.94;;;23.48;100.00
8697;BME280;4385;48.848;8.924;2023-07-02T06:02:00;97024.94;;;23.47;100.00
8697;BME280;4385;48.848;8.924;2023-07-02T06:04:26;97020.72;;;23.46;100.00
8697;BME280;4385;48.848;8.924;2023-07-02T06:06:51;97016.41;;;23.47;100.00
8697;BME280;4385;48.848;8.924;2023-07-02T06:09:16;97020.72;;;23.46;100.00
8697;BME280;4385;48.848;8.924;2023-07-02T06:11:42;97024.09;;;23.47;100.00
8697;BME280;4385;48.848;8.924;2023-07-02T06:14:07;97023.28;;;23.46;100.00
8697;BME280;4385;48.848;8.924;2023-07-02T06:16:32;97024.19;;;23.45;100.00
8697;BME280;4385;48.848;8.924;2023-07-02T06:18:58;97025.03;;;23.46;100.00
8697;BME280;4385;48.848;8.924;2023-07-02T06:21:23;97030.16;;;23.46;100.00
8697;BME280;4385;48.848;8.924;2023-07-02T06:23:54;97025.88;;;23.46;100.00
8697;BME280;4385;48.848;8.924;2023-07-02T06:26:20;97025.88;;;23.46;100.00
8697;BME280;4385;48.848;8.924;2023-07-02T06:28:45;97032.66;;;23.47;100.00
8697;BME280;4385;48.848;8.924;2023-07-02T06:31:10;97032.66;;;23.47;100.00
8697;BME280;4385;48.848;8.924;2023-07-02T06:33:39;97042.94;;;23.47;100.00
8697;BME280;4385;48.848;8.924;2023-07-02T06:36:05;97037.81;;;23.47;100.00
8697;BME280;4385;48.848;8.924;2023-07-02T06:38:30;97037.72;;;23.49;100.00
8697;BME280;4385;48.848;8.924;2023-07-02T06:40:56;97040.31;;;23.49;100.00
8697;BME280;4385;48.848;8.924;2023-07-02T06:43:21;97032.59;;;23.49;100.00
8697;BME280;4385;48.848;8.924;2023-07-02T06:45:46;97036.00;;;23.49;100.00
8697;BME280;4385;48.848;8.924;2023-07-02T06:48:12;97043.72;;;23.49;100.00
8697;BME280;4385;48.848;8.924;2023-07-02T06:50:43;97038.56;;;23.49;100.00
8697;BME280;4385;48.848;8.924;2023-07-02T06:53:08;97050.50;;;23.50;100.00
8697;BME280;4385;48.848;8.924;2023-07-02T06:55:33;97047.94;;;23.50;100.00
8697;BME280;4385;48.848;8.924;2023-07-02T06:57:59;97047.94;;;23.50;100.00
8697;BME280;4385;48.848;8.924;2023-07-02T07:00:24;97053.91;;;23.51;100.00
8697;BME280;4385;48.848;8.924;2023-07-02T07:02:49;97054.81;;;23.50;100.00
8697;BME280;4385;48.848;8.924;2023-07-02T07:05:14;97052.25;;;23.50;100.00
8697;BME280;4385;48.848;8.924;2023-07-02T07:07:41;97060.88;;;23.49;100.00
8697;BME280;4385;48.848;8.924;2023-07-02T07:10:06;97059.22;;;23.48;100.00
8697;BME280;4385;48.848;8.924;2023-07-02T07:12:32;97045.53;;;23.47;100.00
8697;BME280;4385;48.848;8.924;2023-07-02T07:14:57;97060.94;;;23.47;100.00
8697;BME280;4385;48.848;8.924;2023-07-02T07:17:22;97048.09;;;23.47;100.00
8697;BME280;4385;48.848;8.924;2023-07-02T07:19:48;97057.53;;;23.47;100.00
8697;BME280;4385;48.848;8.924;2023-07-02T07:22:13;97068.66;;;23.47;100.00
8697;BME280;4385;48.848;8.924;2023-07-02T07:24:41;97054.88;;;23.48;100.00
8697;BME280;4385;48.848;8.924;2023-07-02T07:27:06;97068.66;;;23.47;100.00
8697;BME280;4385;48.848;8.924;2023-07-02T07:29:32;97066.94;;;23.48;100.00
8697;BME280;4385;48.848;8.924;2023-07-02T07:31:57;97064.34;;;23.48;100.00
8697;BME280;4385;48.848;8.924;2023-07-02T07:34:22;97060.03;;;23.48;100.00
8697;BME280;4385;48.848;8.924;2023-07-02T07:36:47;97065.25;;;23.47;100.00
8697;BME280;4385;48.848;8.924;2023-07-02T07:39:13;97061.78;;;23.48;100.00
8697;BME280;4385;48.848;8.924;2023-07-02T07:41:38;97065.16;;;23.48;100.00
8697;BME280;4385;48.848;8.924;2023-07-02T07:44:03;97068.66;;;23.47;100.00
8697;BME280;4385;48.848;8.924;2023-07-02T07:46:28;97060.94;;;23.47;100.00
8697;BME280;4385;48.848;8.924;2023-07-02T07:48:54;97065.16;;;23.48;100.00
8697;BME280;4385;48.848;8.924;2023-07-02T07:51:19;97058.38;;;23.47;100.00
8697;BME280;4385;48.848;8.924;2023-07-02T07:53:45;97060.94;;;23.47;100.00
8697;BME280;4385;48.848;8.924;2023-07-02T07:56:10;97054.88;;;23.48;100.00
8697;BME280;4385;48.848;8.924;2023-07-02T07:58:35;97075.47;;;23.48;100.00
8697;BME280;4385;48.848;8.924;2023-07-02T08:01:01;97079.78;;;23.48;100.00
8697;BME280;4385;48.848;8.924;2023-07-02T08:03:26;97066.09;;;23.47;100.00
8697;BME280;4385;48.848;8.924;2023-07-02T08:05:51;97070.31;;;23.48;100.00
8697;BME280;4385;48.848;8.924;2023-07-02T08:08:16;97068.66;;;23.47;100.00
8697;BME280;4385;48.848;8.924;2023-07-02T08:10:42;97068.59;;;23.49;100.00
8697;BME280;4385;48.848;8.924;2023-07-02T08:13:08;97058.06;;;23.53;100.00
8697;BME280;4385;48.848;8.924;2023-07-02T08:15:33;97061.56;;;23.52;100.00
8697;BME280;4385;48.848;8.924;2023-07-02T08:17:58;97065.03;;;23.51;100.00
8697;BME280;4385;48.848;8.924;2023-07-02T08:20:25;97068.34;;;23.53;100.00
8697;BME280;4385;48.848;8.924;2023-07-02T08:22:50;97058.75;;;23.57;100.00
8697;BME280;4385;48.848;8.924;2023-07-02T08:25:18;97068.03;;;23.60;100.00
8697;BME280;4385;48.848;8.924;2023-07-02T08:27:46;97063.59;;;23.63;100.00
8697;BME280;4385;48.848;8.924;2023-07-02T08:30:11;97070.16;;;23.69;100.00
8697;BME280;4385;48.848;8.924;2023-07-02T08:32:37;97072.56;;;23.72;100.00
8697;BME280;4385;48.848;8.924;2023-07-02T08:35:02;97069.78;;;23.77;100.00
8697;BME280;4385;48.848;8.924;2023-07-02T08:37:27;97068.78;;;23.79;100.00
8697;BME280;4385;48.848;8.924;2023-07-02T08:39:53;97069.47;;;23.83;100.00
8697;BME280;4385;48.848;8.924;2023-07-02T08:42:18;97070.13;;;23.87;100.00
8697;BME280;4385;48.848;8.924;2023-07-02T08:44:47;97073.28;;;23.92;100.00
8697;BME280;4385;48.848;8.924;2023-07-02T08:47:13;97069.81;;;23.93;100.00
8697;BME280;4385;48.848;8.924;2023-07-02T08:49:39;97074.97;;;23.93;100.00
8697;BME280;4385;48.848;8.924;2023-07-02T08:52:05;97086.91;;;23.94;100.00
8697;BME280;4385;48.848;8.924;2023-07-02T08:54:31;97076.63;;;23.94;100.00
8697;BME280;4385;48.848;8.924;2023-07-02T08:56:56;97079.03;;;23.97;100.00
8697;BME280;4385;48.848;8.924;2023-07-02T08:59:22;97068.66;;;23.99;100.00
8697;BME280;4385;48.848;8.924;2023-07-02T09:01:52;97064.28;;;24.01;100.00
8697;BME280;4385;48.848;8.924;2023-07-02T09:04:24;97070.06;;;24.04;100.00
8697;BME280;4385;48.848;8.924;2023-07-02T09:07:11;97071.84;;;24.04;100.00
8697;BME280;4385;48.848;8.924;2023-07-02T09:09:49;97071.75;;;24.06;100.00
8697;BME280;4385;48.848;8.924;2023-07-02T09:12:26;97071.69;;;24.07;100.00
8697;BME280;4385;48.848;8.924;2023-07-02T09:14:59;97070.84;;;24.07;100.00
8697;BME280;4385;48.848;8.924;2023-07-02T09:17:37;97074.25;;;24.07;100.00
8697;BME280;4385;48.848;8.924;2023-07-02T09:20:05;97079.31;;;24.09;100.00
8697;BME280;4385;48.848;8.924;2023-07-02T09:22:33;97075.81;;;24.10;100.00
8697;BME280;4385;48.848;8.924;2023-07-02T09:24:59;97077.47;;;24.11;100.00
8697;BME280;4385;48.848;8.924;2023-07-02T09:27:38;97075.00;;;24.09;100.00
8697;BME280;4385;48.848;8.924;2023-07-02T09:30:14;97072.41;;;24.09;100.00
8697;BME280;4385;48.848;8.924;2023-07-02T09:32:43;97077.66;;;24.08;100.00
8697;BME280;4385;48.848;8.924;2023-07-02T09:35:09;97072.66;;;24.04;100.00
8697;BME280;4385;48.848;8.924;2023-07-02T09:37:35;97079.66;;;24.02;100.00
8697;BME280;4385;48.848;8.924;2023-07-02T09:40:01;97078.03;;;24.00;100.00
8697;BME280;4385;48.848;8.924;2023-07-02T09:42:28;97069.66;;;23.96;100.00
8697;BME280;4385;48.848;8.924;2023-07-02T09:44:54;97075.69;;;23.95;100.00
8697;BME280;4385;48.848;8.924;2023-07-02T09:47:21;97064.69;;;23.93;100.00
8697;BME280;4385;48.848;8.924;2023-07-02T09:50:03;97068.13;;;23.92;100.00
8697;BME280;4385;48.848;8.924;2023-07-02T09:52:31;97058.84;;;23.89;100.00
8697;BME280;4385;48.848;8.924;2023-07-02T09:54:57;97056.34;;;23.88;100.00
8697;BME280;4385;48.848;8.924;2023-07-02T09:57:22;97056.34;;;23.88;100.00
8697;BME280;4385;48.848;8.924;2023-07-02T09:59:47;97058.16;;;23.86;100.00
8697;BME280;4385;48.848;8.924;2023-07-02T10:02:13;97056.50;;;23.85;100.00
8697;BME280;4385;48.848;8.924;2023-07-02T10:04:41;97048.78;;;23.85;100.00
8697;BME280;4385;48.848;8.924;2023-07-02T10:07:06;97044.56;;;23.84;100.00
8697;BME280;4385;48.848;8.924;2023-07-02T10:09:39;97048.03;;;23.83;100.00
8697;BME280;4385;48.848;8.924;2023-07-02T10:12:23;97048.88;;;23.83;100.00
8697;BME280;4385;48.848;8.924;2023-07-02T10:14:51;97049.88;;;23.81;100.00
8697;BME280;4385;48.848;8.924;2023-07-02T10:17:32;97065.31;;;23.81;100.00
8697;BME280;4385;48.848;8.924;2023-07-02T10:20:05;97061.06;;;23.79;100.00
8697;BME280;4385;48.848;8.924;2023-07-02T10:22:47;97062.88;;;23.77;100.00
8697;BME280;4385;48.848;8.924;2023-07-02T10:25:24;97057.75;;;23.77;100.00
8697;BME280;4385;48.848;8.924;2023-07-02T10:27:49;97058.63;;;23.76;100.00
8697;BME280;4385;48.848;8.924;2023-07-02T10:30:14;97046.69;;;23.75;100.00
8697;BME280;4385;48.848;8.924;2023-07-02T10:32:40;97053.56;;;23.75;100.00
8697;BME280;4385;48.848;8.924;2023-07-02T10:35:15;97051.00;;;23.75;100.00
8697;BME280;4385;48.848;8.924;2023-07-02T10:37:41;97052.75;;;23.74;100.00
8697;BME280;4385;48.848;8.924;2023-07-02T10:40:07;97050.91;;;23.76;100.00
8697;BME280;4385;48.848;8.924;2023-07-02T10:42:33;97058.63;;;23.76;100.00
8697;BME280;4385;48.848;8.924;2023-07-02T10:44:59;97042.47;;;23.74;100.00
8697;BME280;4385;48.848;8.924;2023-07-02T10:47:24;97058.72;;;23.75;100.00
8697;BME280;4385;48.848;8.924;2023-07-02T10:49:49;97055.34;;;23.74;100.00
8697;BME280;4385;48.848;8.924;2023-07-02T10:52:15;97064.78;;;23.74;100.00
8697;BME280;4385;48.848;8.924;2023-07-02T10:54:41;97057.91;;;23.74;100.00
8697;BME280;4385;48.848;8.924;2023-07-02T10:57:14;97055.34;;;23.74;100.00
8697;BME280;4385;48.848;8.924;2023-07-02T10:59:41;97056.97;;;23.75;100.00
8697;BME280;4385;48.848;8.924;2023-07-02T11:02:07;97058.63;;;23.76;100.00
8697;BME280;4385;48.848;8.924;2023-07-02T11:04:33;97054.34;;;23.77;100.00
8697;BME280;4385;48.848;8.924;2023-07-02T11:07:02;97055.25;;;23.76;100.00
8697;BME280;4385;48.848;8.924;2023-07-02T11:09:28;97067.28;;;23.75;100.00
8697;BME280;4385;48.848;8.924;2023-07-02T11:11:58;97062.97;;;23.76;100.00
8697;BME280;4385;48.848;8.924;2023-07-02T11:14:31;97052.75;;;23.74;100.00
8697;BME280;4385;48.848;8.924;2023-07-02T11:16:58;97062.97;;;23.76;100.00
8697;BME280;4385;48.848;8.924;2023-07-02T11:19:25;97052.69;;;23.76;100.00
8697;BME280;4385;48.848;8.924;2023-07-02T11:21:52;97058.63;;;23.76;100.00
8697;BME280;4385;48.848;8.924;2023-07-02T11:24:33;97058.63;;;23.76;100.00
8697;BME280;4385;48.848;8.924;2023-07-02T11:26:59;97056.16;;;23.75;100.00
8697;BME280;4385;48.848;8.924;2023-07-02T11:29:25;97056.97;;;23.75;100.00
8697;BME280;4385;48.848;8.924;2023-07-02T11:31:50;97064.69;;;23.75;100.00
8697;BME280;4385;48.848;8.924;2023-07-02T11:34:18;97062.97;;;23.76;100.00
8697;BME280;4385;48.848;8.924;2023-07-02T11:36:44;97056.16;;;23.75;100.00
8697;BME280;4385;48.848;8.924;2023-07-02T11:39:10;97052.69;;;23.76;100.00
8697;BME280;4385;48.848;8.924;2023-07-02T11:41:39;97055.25;;;23.76;100.00
8697;BME280;4385;48.848;8.924;2023-07-02T11:44:06;97046.69;;;23.75;100.00
8697;BME280;4385;48.848;8.924;2023-07-02T11:46:31;97051.84;;;23.75;100.00
8697;BME280;4385;48.848;8.924;2023-07-02T11:48:56;97051.91;;;23.74;100.00
8697;BME280;4385;48.848;8.924;2023-07-02T11:51:22;97045.94;;;23.73;100.00
8697;BME280;4385;48.848;8.924;2023-07-02T11:53:47;97041.63;;;23.74;100.00
8697;BME280;4385;48.848;8.924;2023-07-02T11:56:12;97042.47;;;23.74;100.00
8697;BME280;4385;48.848;8.924;2023-07-02T11:58:39;97046.00;;;23.72;100.00
8697;BME280;4385;48.848;8.924;2023-07-02T12:01:04;97044.28;;;23.72;100.00
8697;BME280;4385;48.848;8.924;2023-07-02T12:03:29;97042.63;;;23.71;100.00
8697;BME280;4385;48.848;8.924;2023-07-02T12:05:55;97029.78;;;23.71;100.00
8697;BME280;4385;48.848;8.924;2023-07-02T12:08:21;97036.56;;;23.72;100.00
8697;BME280;4385;48.848;8.924;2023-07-02T12:10:46;97028.84;;;23.72;100.00
8697;BME280;4385;48.848;8.924;2023-07-02T12:13:11;97028.84;;;23.72;100.00
8697;BME280;4385;48.848;8.924;2023-07-02T12:15:37;97024.47;;;23.74;100.00
8697;BME280;4385;48.848;8.924;2023-07-02T12:18:02;97031.25;;;23.75;100.00
8697;BME280;4385;48.848;8.924;2023-07-02T12:20:27;97037.25;;;23.76;100.00
8697;BME280;4385;48.848;8.924;2023-07-02T12:22:53;97020.97;;;23.75;100.00
8697;BME280;4385;48.848;8.924;2023-07-02T12:25:18;97025.19;;;23.76;100.00
8697;BME280;4385;48.848;8.924;2023-07-02T12:27:43;97034.59;;;23.77;100.00
8697;BME280;4385;48.848;8.924;2023-07-02T12:30:09;97032.75;;;23.79;100.00
8697;BME280;4385;48.848;8.924;2023-07-02T12:32:35;97037.09;;;23.79;100.00
8697;BME280;4385;48.848;8.924;2023-07-02T12:35:00;97030.19;;;23.79;100.00
8697;BME280;4385;48.848;8.924;2023-07-02T12:37:26;97015.66;;;23.78;100.00
8697;BME280;4385;48.848;8.924;2023-07-02T12:39:51;97021.66;;;23.79;100.00
8697;BME280;4385;48.848;8.924;2023-07-02T12:42:16;97025.03;;;23.79;100.00
8697;BME280;4385;48.848;8.924;2023-07-02T12:44:42;97029.28;;;23.81;100.00
8697;BME280;4385;48.848;8.924;2023-07-02T12:47:07;97022.47;;;23.79;100.00
8697;BME280;4385;48.848;8.924;2023-07-02T12:49:33;97024.97;;;23.81;100.00
8697;BME280;4385;48.848;8.924;2023-07-02T12:51:59;97029.28;;;23.81;100.00
8697;BME280;4385;48.848;8.924;2023-07-02T12:54:24;97029.28;;;23.81;100.00
8697;BME280;4385;48.848;8.924;2023-07-02T12:56:50;97023.22;;;23.82;100.00
8697;BME280;4385;48.848;8.924;2023-07-02T12:59:15;97025.81;;;23.82;100.00
8697;BME280;4385;48.848;8.924;2023-07-02T13:01:41;97027.44;;;23.83;100.00
8697;BME280;4385;48.848;8.924;2023-07-02T13:04:06;97025.81;;;23.82;100.00
8697;BME280;4385;48.848;8.924;2023-07-02T13:06:31;97026.66;;;23.82;100.00